sensor_id;sensor_type;location;lat;lon;timestamp;pressure;altitude;pressure_sealevel;temperature;humidity
75551;BME280;65071;53.082;18.218;2023-09-12T00:00:25;100965.90;;;15.52;73.28
75551;BME280;65071;53.082;18.218;2023-09-12T00:03:11;100961.59;;;15.47;73.70
75551;BME280;65071;53.082;18.218;2023-09-12T00:05:38;100962.81;;;15.42;73.76
75551;BME280;65071;53.082;18.218;2023-09-12T00:08:04;100963.85;;;15.37;73.85
75551;BME280;65071;53.082;18.218;2023-09-12T00:10:31;100964.55;;;15.33;73.76
75551;BME280;65071;53.082;18.218;2023-09-12T00:12:58;100961.52;;;15.28;73.75
75551;BME280;65071;53.082;18.218;2023-09-12T00:15:27;100964.17;;;15.22;74.04
75551;BME280;65071;53.082;18.218;2023-09-12T00:17:54;100957.61;;;15.16;73.99
75551;BME280;65071;53.082;18.218;2023-09-12T00:20:20;100962.94;;;15.14;74.13
75551;BME280;65071;53.082;18.218;2023-09-12T00:22:47;100963.27;;;15.11;74.12
75551;BME280;65071;53.082;18.218;2023-09-12T00:25:13;100963.55;;;15.09;74.20
75551;BME280;65071;53.082;18.218;2023-09-12T00:27:40;100963.05;;;15.07;74.41
75551;BME280;65071;53.082;18.218;2023-09-12T00:30:07;100962.11;;;15.04;74.27
75551;BME280;65071;53.082;18.218;2023-09-12T00:32:33;100965.27;;;15.03;74.40
75551;BME280;65071;53.082;18.218;2023-09-12T00:35:00;100963.76;;;15.01;74.62
75551;BME280;65071;53.082;18.218;2023-09-12T00:37:26;100967.95;;;14.99;74.54
75551;BME280;65071;53.082;18.218;2023-09-12T00:39:53;100966.50;;;14.96;74.69
75551;BME280;65071;53.082;18.218;2023-09-12T00:42:19;100967.02;;;14.93;74.77
75551;BME280;65071;53.082;18.218;2023-09-12T00:44:47;100966.48;;;14.90;74.60
75551;BME280;65071;53.082;18.218;2023-09-12T00:47:13;100963.91;;;14.87;74.56
75551;BME280;65071;53.082;18.218;2023-09-12T00:49:41;100958.93;;;14.85;74.82
75551;BME280;65071;53.082;18.218;2023-09-12T00:52:08;100957.71;;;14.81;75.06
75551;BME280;65071;53.082;18.218;2023-09-12T00:54:35;100955.92;;;14.78;75.08
75551;BME280;65071;53.082;18.218;2023-09-12T00:57:01;100955.45;;;14.76;74.82
75551;BME280;65071;53.082;18.218;2023-09-12T00:59:28;100958.48;;;14.75;75.02
75551;BME280;65071;53.082;18.218;2023-09-12T01:01:55;100957.41;;;14.73;74.90
75551;BME280;65071;53.082;18.218;2023-09-12T01:04:21;100951.81;;;14.71;75.07
75551;BME280;65071;53.082;18.218;2023-09-12T01:06:48;100952.98;;;14.69;75.41
75551;BME280;65071;53.082;18.218;2023-09-12T01:09:15;100951.52;;;14.68;75.26
75551;BME280;65071;53.082;18.218;2023-09-12T01:11:41;100949.06;;;14.66;75.24
75551;BME280;65071;53.082;18.218;2023-09-12T01:14:08;100950.91;;;14.64;75.38
75551;BME280;65071;53.082;18.218;2023-09-12T01:16:35;100952.62;;;14.61;75.36
75551;BME280;65071;53.082;18.218;2023-09-12T01:19:03;100953.83;;;14.59;75.45
75551;BME280;65071;53.082;18.218;2023-09-12T01:21:55;100954.07;;;14.57;75.39
75551;BME280;65071;53.082;18.218;2023-09-12T01:29:57;100951.80;;;14.48;75.86
75551;BME280;65071;53.082;18.218;2023-09-12T01:32:25;100951.60;;;14.44;75.64
75551;BME280;65071;53.082;18.218;2023-09-12T01:34:52;100951.45;;;14.41;75.66
75551;BME280;65071;53.082;18.218;2023-09-12T01:37:19;100950.71;;;14.38;75.78
75551;BME280;65071;53.082;18.218;2023-09-12T01:39:46;100951.73;;;14.35;75.95
75551;BME280;65071;53.082;18.218;2023-09-12T01:42:18;100956.77;;;14.33;75.87
75551;BME280;65071;53.082;18.218;2023-09-12T01:44:49;100961.06;;;14.30;76.02
75551;BME280;65071;53.082;18.218;2023-09-12T01:47:17;100958.98;;;14.26;75.98
75551;BME280;65071;53.082;18.218;2023-09-12T01:49:47;100963.41;;;14.25;76.10
75551;BME280;65071;53.082;18.218;2023-09-12T01:52:14;100962.03;;;14.21;75.93
75551;BME280;65071;53.082;18.218;2023-09-12T01:54:42;100960.20;;;14.20;75.97
75551;BME280;65071;53.082;18.218;2023-09-12T01:57:08;100959.70;;;14.18;76.06
75551;BME280;65071;53.082;18.218;2023-09-12T01:59:36;100960.83;;;14.16;76.13
75551;BME280;65071;53.082;18.218;2023-09-12T02:02:03;100964.02;;;14.15;76.14
75551;BME280;65071;53.082;18.218;2023-09-12T02:04:29;100963.64;;;14.13;76.37
75551;BME280;65071;53.082;18.218;2023-09-12T02:06:56;100968.73;;;14.12;76.38
75551;BME280;65071;53.082;18.218;2023-09-12T02:09:24;100965.71;;;14.09;76.48
75551;BME280;65071;53.082;18.218;2023-09-12T02:11:51;100962.21;;;14.07;76.53
75551;BME280;65071;53.082;18.218;2023-09-12T02:14:17;100963.06;;;14.04;76.47
75551;BME280;65071;53.082;18.218;2023-09-12T02:16:44;100966.02;;;14.02;76.30
75551;BME280;65071;53.082;18.218;2023-09-12T02:19:11;100962.16;;;14.01;76.39
75551;BME280;65071;53.082;18.218;2023-09-12T02:21:38;100962.26;;;14.00;76.52
75551;BME280;65071;53.082;18.218;2023-09-12T02:24:05;100965.17;;;14.00;76.48
75551;BME280;65071;53.082;18.218;2023-09-12T02:26:31;100966.15;;;13.99;76.41
75551;BME280;65071;53.082;18.218;2023-09-12T02:29:03;100967.02;;;13.98;76.49
75551;BME280;65071;53.082;18.218;2023-09-12T02:31:30;100968.15;;;13.96;76.43
75551;BME280;65071;53.082;18.218;2023-09-12T02:33:57;100966.73;;;13.94;76.58
75551;BME280;65071;53.082;18.218;2023-09-12T02:36:23;100967.14;;;13.92;76.70
75551;BME280;65071;53.082;18.218;2023-09-12T02:38:50;100968.29;;;13.90;76.64
75551;BME280;65071;53.082;18.218;2023-09-12T02:41:17;100969.51;;;13.87;76.60
75551;BME280;65071;53.082;18.218;2023-09-12T02:43:44;100969.10;;;13.84;76.74
75551;BME280;65071;53.082;18.218;2023-09-12T02:46:10;100969.16;;;13.82;76.73
75551;BME280;65071;53.082;18.218;2023-09-12T02:48:37;100970.83;;;13.80;76.90
75551;BME280;65071;53.082;18.218;2023-09-12T02:51:03;100974.17;;;13.78;76.88
75551;BME280;65071;53.082;18.218;2023-09-12T02:53:30;100972.63;;;13.75;76.92
75551;BME280;65071;53.082;18.218;2023-09-12T02:55:56;100973.13;;;13.74;76.90
75551;BME280;65071;53.082;18.218;2023-09-12T02:58:23;100970.89;;;13.73;77.05
75551;BME280;65071;53.082;18.218;2023-09-12T03:00:49;100974.69;;;13.71;77.29
75551;BME280;65071;53.082;18.218;2023-09-12T03:03:20;100977.86;;;13.69;77.32
75551;BME280;65071;53.082;18.218;2023-09-12T03:05:47;100978.78;;;13.67;77.38
75551;BME280;65071;53.082;18.218;2023-09-12T03:08:14;100979.19;;;13.65;77.45
75551;BME280;65071;53.082;18.218;2023-09-12T03:10:40;100974.88;;;13.63;77.29
75551;BME280;65071;53.082;18.218;2023-09-12T03:13:07;100974.30;;;13.62;77.53
75551;BME280;65071;53.082;18.218;2023-09-12T03:15:37;100975.07;;;13.60;77.63
75551;BME280;65071;53.082;18.218;2023-09-12T03:18:04;100975.85;;;13.57;77.75
75551;BME280;65071;53.082;18.218;2023-09-12T03:20:31;100976.25;;;13.56;77.69
75551;BME280;65071;53.082;18.218;2023-09-12T03:22:58;100976.63;;;13.54;77.54
75551;BME280;65071;53.082;18.218;2023-09-12T03:25:24;100976.55;;;13.53;77.56
75551;BME280;65071;53.082;18.218;2023-09-12T03:27:51;100973.83;;;13.51;77.57
75551;BME280;65071;53.082;18.218;2023-09-12T03:30:19;100974.38;;;13.51;77.73
75551;BME280;65071;53.082;18.218;2023-09-12T03:32:46;100969.94;;;13.51;77.71
75551;BME280;65071;53.082;18.218;2023-09-12T03:35:13;100975.01;;;13.50;77.98
75551;BME280;65071;53.082;18.218;2023-09-12T03:37:39;100973.33;;;13.49;78.08
75551;BME280;65071;53.082;18.218;2023-09-12T03:40:09;100974.38;;;13.48;77.85
75551;BME280;65071;53.082;18.218;2023-09-12T03:42:37;100976.41;;;13.46;77.90
75551;BME280;65071;53.082;18.218;2023-09-12T03:45:05;100975.23;;;13.45;77.89
75551;BME280;65071;53.082;18.218;2023-09-12T03:47:31;100973.76;;;13.44;77.82
75551;BME280;65071;53.082;18.218;2023-09-12T03:49:58;100974.46;;;13.42;77.94
75551;BME280;65071;53.082;18.218;2023-09-12T03:52:24;100969.34;;;13.41;78.05
75551;BME280;65071;53.082;18.218;2023-09-12T03:54:51;100969.48;;;13.40;78.06
75551;BME280;65071;53.082;18.218;2023-09-12T03:57:17;100967.40;;;13.39;77.84
75551;BME280;65071;53.082;18.218;2023-09-12T03:59:44;100963.92;;;13.38;77.84
75551;BME280;65071;53.082;18.218;2023-09-12T04:02:13;100965.41;;;13.38;77.97
75551;BME280;65071;53.082;18.218;2023-09-12T04:04:39;100965.58;;;13.36;78.17
75551;BME280;65071;53.082;18.218;2023-09-12T04:07:06;100964.48;;;13.35;78.19
75551;BME280;65071;53.082;18.218;2023-09-12T04:09:33;100967.42;;;13.32;78.05
75551;BME280;65071;53.082;18.218;2023-09-12T04:11:59;100969.55;;;13.31;78.01
75551;BME280;65071;53.082;18.218;2023-09-12T04:14:26;100968.02;;;13.30;78.11
75551;BME280;65071;53.082;18.218;2023-09-12T04:16:52;100972.63;;;13.30;78.06
75551;BME280;65071;53.082;18.218;2023-09-12T04:19:19;100973.38;;;13.29;78.23
75551;BME280;65071;53.082;18.218;2023-09-12T04:21:45;100973.92;;;13.28;78.22
75551;BME280;65071;53.082;18.218;2023-09-12T04:24:12;100971.64;;;13.27;78.07
75551;BME280;65071;53.082;18.218;2023-09-12T04:26:38;100971.46;;;13.27;78.14
75551;BME280;65071;53.082;18.218;2023-09-12T04:29:05;100968.73;;;13.27;78.28
75551;BME280;65071;53.082;18.218;2023-09-12T04:31:31;100969.25;;;13.27;78.16
75551;BME280;65071;53.082;18.218;2023-09-12T04:33:58;100967.69;;;13.28;78.41
75551;BME280;65071;53.082;18.218;2023-09-12T04:36:24;100967.68;;;13.28;78.48
75551;BME280;65071;53.082;18.218;2023-09-12T04:38:51;100964.80;;;13.28;78.51
75551;BME280;65071;53.082;18.218;2023-09-12T04:41:18;100964.80;;;13.30;78.15
75551;BME280;65071;53.082;18.218;2023-09-12T04:43:44;100970.30;;;13.32;78.38
75551;BME280;65071;53.082;18.218;2023-09-12T04:46:11;100967.98;;;13.36;78.30
75551;BME280;65071;53.082;18.218;2023-09-12T04:48:39;100968.33;;;13.39;78.38
75551;BME280;65071;53.082;18.218;2023-09-12T04:51:05;100968.83;;;13.42;78.49
75551;BME280;65071;53.082;18.218;2023-09-12T04:53:32;100969.49;;;13.48;78.72
75551;BME280;65071;53.082;18.218;2023-09-12T04:56:02;100970.96;;;13.54;78.77
75551;BME280;65071;53.082;18.218;2023-09-12T04:58:29;100969.85;;;13.61;78.61
75551;BME280;65071;53.082;18.218;2023-09-12T05:00:56;100970.91;;;13.69;78.71
75551;BME280;65071;53.082;18.218;2023-09-12T05:03:23;100973.34;;;13.77;78.70
75551;BME280;65071;53.082;18.218;2023-09-12T05:05:51;100973.03;;;13.86;78.70
75551;BME280;65071;53.082;18.218;2023-09-12T05:08:18;100975.83;;;13.98;78.43
75551;BME280;65071;53.082;18.218;2023-09-12T05:10:45;100976.23;;;14.09;78.41
75551;BME280;65071;53.082;18.218;2023-09-12T05:13:12;100976.68;;;14.21;78.21
75551;BME280;65071;53.082;18.218;2023-09-12T05:15:41;100975.92;;;14.34;78.09
75551;BME280;65071;53.082;18.218;2023-09-12T05:18:08;100978.42;;;14.49;77.75
75551;BME280;65071;53.082;18.218;2023-09-12T05:20:34;100980.42;;;14.64;77.56
75551;BME280;65071;53.082;18.218;2023-09-12T05:23:01;100983.13;;;14.78;77.41
75551;BME280;65071;53.082;18.218;2023-09-12T05:25:28;100980.80;;;14.93;77.14
75551;BME280;65071;53.082;18.218;2023-09-12T05:27:54;100983.93;;;15.08;77.03
75551;BME280;65071;53.082;18.218;2023-09-12T05:30:22;100987.16;;;15.24;76.85
75551;BME280;65071;53.082;18.218;2023-09-12T05:32:49;100983.55;;;15.39;76.56
75551;BME280;65071;53.082;18.218;2023-09-12T05:35:15;100983.35;;;15.55;76.35
75551;BME280;65071;53.082;18.218;2023-09-12T05:37:42;100983.84;;;15.72;76.20
75551;BME280;65071;53.082;18.218;2023-09-12T05:40:09;100984.48;;;15.88;76.04
75551;BME280;65071;53.082;18.218;2023-09-12T05:42:37;100985.61;;;16.00;75.52
75551;BME280;65071;53.082;18.218;2023-09-12T05:45:03;100985.77;;;16.11;75.42
75551;BME280;65071;53.082;18.218;2023-09-12T05:47:30;100982.73;;;16.24;75.36
75551;BME280;65071;53.082;18.218;2023-09-12T05:49:57;100982.05;;;16.41;75.32
75551;BME280;65071;53.082;18.218;2023-09-12T05:52:26;100978.59;;;16.56;75.26
75551;BME280;65071;53.082;18.218;2023-09-12T05:54:52;100980.33;;;16.74;75.19
75551;BME280;65071;53.082;18.218;2023-09-12T05:57:19;100983.14;;;16.94;74.86
75551;BME280;65071;53.082;18.218;2023-09-12T05:59:46;100987.19;;;17.14;74.53
75551;BME280;65071;53.082;18.218;2023-09-12T06:02:12;100987.22;;;17.34;74.25
75551;BME280;65071;53.082;18.218;2023-09-12T06:04:39;100984.81;;;17.52;73.73
75551;BME280;65071;53.082;18.218;2023-09-12T06:07:06;100984.96;;;17.71;73.73
75551;BME280;65071;53.082;18.218;2023-09-12T06:09:32;100983.41;;;17.91;73.03
75551;BME280;65071;53.082;18.218;2023-09-12T06:11:59;100983.64;;;18.09;72.18
75551;BME280;65071;53.082;18.218;2023-09-12T06:14:25;100984.85;;;18.28;71.74
75551;BME280;65071;53.082;18.218;2023-09-12T06:16:52;100982.69;;;18.44;71.52
75551;BME280;65071;53.082;18.218;2023-09-12T06:19:20;100982.83;;;18.60;71.87
75551;BME280;65071;53.082;18.218;2023-09-12T06:21:46;100987.04;;;18.74;71.30
75551;BME280;65071;53.082;18.218;2023-09-12T06:24:17;100983.38;;;18.88;70.90
75551;BME280;65071;53.082;18.218;2023-09-12T06:26:43;100984.02;;;19.03;71.00
75551;BME280;65071;53.082;18.218;2023-09-12T06:29:10;100984.37;;;19.22;71.13
75551;BME280;65071;53.082;18.218;2023-09-12T06:31:37;100987.99;;;19.43;70.46
75551;BME280;65071;53.082;18.218;2023-09-12T06:34:03;100983.53;;;19.62;70.20
75551;BME280;65071;53.082;18.218;2023-09-12T06:36:30;100987.30;;;19.80;69.84
75551;BME280;65071;53.082;18.218;2023-09-12T06:38:57;100989.79;;;19.96;69.19
75551;BME280;65071;53.082;18.218;2023-09-12T06:41:24;100990.17;;;20.11;68.31
75551;BME280;65071;53.082;18.218;2023-09-12T06:43:50;100992.98;;;20.24;67.73
75551;BME280;65071;53.082;18.218;2023-09-12T06:46:17;100994.27;;;20.39;68.18
75551;BME280;65071;53.082;18.218;2023-09-12T06:48:45;100994.02;;;20.56;67.88
75551;BME280;65071;53.082;18.218;2023-09-12T06:51:12;100995.43;;;20.76;67.99
75551;BME280;65071;53.082;18.218;2023-09-12T06:53:38;100995.43;;;20.94;67.97
75551;BME280;65071;53.082;18.218;2023-09-12T06:56:05;100990.98;;;21.11;67.19
75551;BME280;65071;53.082;18.218;2023-09-12T06:58:32;100991.31;;;21.25;65.27
75551;BME280;65071;53.082;18.218;2023-09-12T07:01:03;100993.10;;;21.43;65.89
75551;BME280;65071;53.082;18.218;2023-09-12T07:03:31;100992.44;;;21.60;65.81
75551;BME280;65071;53.082;18.218;2023-09-12T07:05:57;100992.91;;;21.74;65.61
75551;BME280;65071;53.082;18.218;2023-09-12T07:08:25;100990.37;;;21.88;65.06
75551;BME280;65071;53.082;18.218;2023-09-12T07:10:51;100992.98;;;22.01;65.63
75551;BME280;65071;53.082;18.218;2023-09-12T07:13:21;100995.41;;;22.17;66.12
75551;BME280;65071;53.082;18.218;2023-09-12T07:15:50;100995.17;;;22.31;65.93
75551;BME280;65071;53.082;18.218;2023-09-12T07:18:17;100994.69;;;22.49;65.78
75551;BME280;65071;53.082;18.218;2023-09-12T07:20:43;100990.92;;;22.60;64.50
75551;BME280;65071;53.082;18.218;2023-09-12T07:23:10;100993.05;;;22.64;64.13
75551;BME280;65071;53.082;18.218;2023-09-12T07:25:40;100991.27;;;22.70;64.54
75551;BME280;65071;53.082;18.218;2023-09-12T07:28:08;100992.21;;;22.81;64.49
75551;BME280;65071;53.082;18.218;2023-09-12T07:30:35;100989.56;;;22.91;64.43
75551;BME280;65071;53.082;18.218;2023-09-12T07:33:03;100987.27;;;23.00;63.51
75551;BME280;65071;53.082;18.218;2023-09-12T07:35:30;100987.95;;;23.08;62.75
75551;BME280;65071;53.082;18.218;2023-09-12T07:37:57;100985.00;;;23.18;63.32
75551;BME280;65071;53.082;18.218;2023-09-12T07:40:25;100983.09;;;23.29;62.74
75551;BME280;65071;53.082;18.218;2023-09-12T07:42:54;100989.48;;;23.45;63.28
75551;BME280;65071;53.082;18.218;2023-09-12T07:45:21;100986.54;;;23.57;62.79
75551;BME280;65071;53.082;18.218;2023-09-12T07:47:47;100987.19;;;23.67;62.82
75551;BME280;65071;53.082;18.218;2023-09-12T07:50:14;100987.91;;;23.77;62.41
75551;BME280;65071;53.082;18.218;2023-09-12T07:52:41;100988.60;;;23.84;62.37
75551;BME280;65071;53.082;18.218;2023-09-12T07:55:08;100988.54;;;23.89;61.21
75551;BME280;65071;53.082;18.218;2023-09-12T07:57:35;100988.89;;;23.96;61.80
75551;BME280;65071;53.082;18.218;2023-09-12T08:00:04;100983.15;;;23.98;60.79
75551;BME280;65071;53.082;18.218;2023-09-12T08:02:38;100983.55;;;23.99;60.65
75551;BME280;65071;53.082;18.218;2023-09-12T08:05:05;100984.18;;;24.00;60.63
75551;BME280;65071;53.082;18.218;2023-09-12T08:07:32;100985.55;;;24.06;60.97
75551;BME280;65071;53.082;18.218;2023-09-12T08:09:58;100986.78;;;24.19;60.31
75551;BME280;65071;53.082;18.218;2023-09-12T08:12:27;100987.96;;;24.33;60.10
75551;BME280;65071;53.082;18.218;2023-09-12T08:14:54;100989.09;;;24.42;59.33
75551;BME280;65071;53.082;18.218;2023-09-12T08:17:22;100983.77;;;24.48;58.37
75551;BME280;65071;53.082;18.218;2023-09-12T08:19:49;100982.95;;;24.54;59.17
75551;BME280;65071;53.082;18.218;2023-09-12T08:22:16;100986.54;;;24.62;59.51
75551;BME280;65071;53.082;18.218;2023-09-12T08:24:42;100990.73;;;24.69;59.29
75551;BME280;65071;53.082;18.218;2023-09-12T08:27:09;100989.95;;;24.84;59.61
75551;BME280;65071;53.082;18.218;2023-09-12T08:29:36;100991.80;;;24.99;59.53
75551;BME280;65071;53.082;18.218;2023-09-12T08:32:03;100992.02;;;25.14;59.29
75551;BME280;65071;53.082;18.218;2023-09-12T08:34:30;100994.19;;;25.22;58.35
75551;BME280;65071;53.082;18.218;2023-09-12T08:36:56;100993.83;;;25.28;58.51
75551;BME280;65071;53.082;18.218;2023-09-12T08:39:25;100988.95;;;25.37;57.89
75551;BME280;65071;53.082;18.218;2023-09-12T08:41:52;100991.08;;;25.50;58.04
75551;BME280;65071;53.082;18.218;2023-09-12T08:44:20;100986.40;;;25.58;57.05
75551;BME280;65071;53.082;18.218;2023-09-12T08:46:47;100985.13;;;25.67;57.42
75551;BME280;65071;53.082;18.218;2023-09-12T08:49:14;100988.62;;;25.71;55.39
75551;BME280;65071;53.082;18.218;2023-09-12T08:51:42;100986.58;;;25.79;55.93
75551;BME280;65071;53.082;18.218;2023-09-12T08:54:09;100984.50;;;25.84;55.66
75551;BME280;65071;53.082;18.218;2023-09-12T08:56:39;100983.65;;;25.92;55.61
75551;BME280;65071;53.082;18.218;2023-09-12T08:59:06;100981.80;;;26.02;56.03
75551;BME280;65071;53.082;18.218;2023-09-12T09:01:34;100986.52;;;26.13;56.07
75551;BME280;65071;53.082;18.218;2023-09-12T09:04:02;100983.13;;;26.18;54.25
75551;BME280;65071;53.082;18.218;2023-09-12T09:06:31;100987.89;;;26.31;54.65
75551;BME280;65071;53.082;18.218;2023-09-12T09:09:07;100987.60;;;26.40;53.64
75551;BME280;65071;53.082;18.218;2023-09-12T09:11:34;100986.55;;;26.51;53.60
75551;BME280;65071;53.082;18.218;2023-09-12T09:14:02;100986.41;;;26.55;52.22
75551;BME280;65071;53.082;18.218;2023-09-12T09:16:29;100984.72;;;26.66;52.90
75551;BME280;65071;53.082;18.218;2023-09-12T09:18:58;100985.84;;;26.76;52.80
75551;BME280;65071;53.082;18.218;2023-09-12T09:21:30;100987.40;;;26.88;52.02
75551;BME280;65071;53.082;18.218;2023-09-12T09:24:04;100984.05;;;26.97;51.11
75551;BME280;65071;53.082;18.218;2023-09-12T09:26:47;100981.29;;;27.08;51.16
75551;BME280;65071;53.082;18.218;2023-09-12T09:29:16;100972.19;;;27.25;50.87
75551;BME280;65071;53.082;18.218;2023-09-12T09:31:49;100967.95;;;27.34;50.43
75551;BME280;65071;53.082;18.218;2023-09-12T09:34:18;100963.80;;;27.42;50.42
75551;BME280;65071;53.082;18.218;2023-09-12T09:36:52;100964.39;;;27.49;48.98
75551;BME280;65071;53.082;18.218;2023-09-12T09:39:24;100959.44;;;27.58;49.28
75551;BME280;65071;53.082;18.218;2023-09-12T09:41:56;100959.54;;;27.63;48.43
75551;BME280;65071;53.082;18.218;2023-09-12T09:44:23;100953.59;;;27.64;47.28
75551;BME280;65071;53.082;18.218;2023-09-12T09:46:55;100954.02;;;27.73;48.25
75551;BME280;65071;53.082;18.218;2023-09-12T09:49:22;100952.63;;;27.82;48.07
75551;BME280;65071;53.082;18.218;2023-09-12T09:51:48;100945.31;;;27.89;48.34
75551;BME280;65071;53.082;18.218;2023-09-12T09:54:15;100946.08;;;27.98;47.25
75551;BME280;65071;53.082;18.218;2023-09-12T09:56:49;100943.63;;;28.02;44.95
75551;BME280;65071;53.082;18.218;2023-09-12T09:59:21;100944.95;;;27.99;41.91
75551;BME280;65071;53.082;18.218;2023-09-12T10:01:49;100943.98;;;28.04;41.75
75551;BME280;65071;53.082;18.218;2023-09-12T10:04:16;100946.40;;;28.07;40.86
75551;BME280;65071;53.082;18.218;2023-09-12T10:06:44;100939.02;;;28.13;41.92
75551;BME280;65071;53.082;18.218;2023-09-12T10:09:13;100935.86;;;28.19;42.00
75551;BME280;65071;53.082;18.218;2023-09-12T10:11:42;100934.52;;;28.26;42.12
75551;BME280;65071;53.082;18.218;2023-09-12T10:14:09;100929.71;;;28.34;42.20
75551;BME280;65071;53.082;18.218;2023-09-12T10:16:46;100928.84;;;28.43;42.48
75551;BME280;65071;53.082;18.218;2023-09-12T10:19:19;100932.41;;;28.52;41.33
75551;BME280;65071;53.082;18.218;2023-09-12T10:22:12;100930.71;;;28.56;41.40
75551;BME280;65071;53.082;18.218;2023-09-12T10:24:43;100929.80;;;28.58;40.04
75551;BME280;65071;53.082;18.218;2023-09-12T10:27:12;100929.02;;;28.57;39.49
75551;BME280;65071;53.082;18.218;2023-09-12T10:29:39;100928.51;;;28.63;40.84
75551;BME280;65071;53.082;18.218;2023-09-12T10:32:06;100927.14;;;28.67;40.18
75551;BME280;65071;53.082;18.218;2023-09-12T10:34:37;100924.04;;;28.68;40.23
75551;BME280;65071;53.082;18.218;2023-09-12T10:37:04;100923.31;;;28.67;39.32
75551;BME280;65071;53.082;18.218;2023-09-12T10:39:32;100921.59;;;28.68;39.96
75551;BME280;65071;53.082;18.218;2023-09-12T10:41:59;100923.55;;;28.71;40.33
75551;BME280;65071;53.082;18.218;2023-09-12T10:44:25;100921.58;;;28.73;40.19
75551;BME280;65071;53.082;18.218;2023-09-12T10:46:53;100922.20;;;28.74;39.89
75551;BME280;65071;53.082;18.218;2023-09-12T10:49:20;100924.98;;;28.75;39.68
75551;BME280;65071;53.082;18.218;2023-09-12T10:51:47;100921.55;;;28.79;39.61
75551;BME280;65071;53.082;18.218;2023-09-12T10:54:25;100916.45;;;28.81;39.32
75551;BME280;65071;53.082;18.218;2023-09-12T10:57:09;100917.52;;;28.84;39.64
75551;BME280;65071;53.082;18.218;2023-09-12T11:02:36;100910.11;;;28.87;39.48
75551;BME280;65071;53.082;18.218;2023-09-12T11:05:05;100905.72;;;28.87;39.07
75551;BME280;65071;53.082;18.218;2023-09-12T11:07:34;100904.20;;;28.85;39.29
75551;BME280;65071;53.082;18.218;2023-09-12T11:12:43;100901.98;;;28.76;38.70
75551;BME280;65071;53.082;18.218;2023-09-12T11:15:10;100901.54;;;28.76;39.15
75551;BME280;65071;53.082;18.218;2023-09-12T11:17:38;100902.89;;;28.80;38.88
75551;BME280;65071;53.082;18.218;2023-09-12T11:20:05;100899.90;;;28.82;38.87
75551;BME280;65071;53.082;18.218;2023-09-12T11:22:43;100901.92;;;28.84;38.43
75551;BME280;65071;53.082;18.218;2023-09-12T11:25:20;100907.14;;;28.85;38.57
75551;BME280;65071;53.082;18.218;2023-09-12T11:30:25;100904.10;;;28.85;39.11
75551;BME280;65071;53.082;18.218;2023-09-12T11:32:53;100900.76;;;28.85;38.70
75551;BME280;65071;53.082;18.218;2023-09-12T11:35:25;100898.48;;;28.87;39.20
75551;BME280;65071;53.082;18.218;2023-09-12T11:37:59;100899.67;;;28.91;39.39
75551;BME280;65071;53.082;18.218;2023-09-12T11:40:40;100904.41;;;28.92;38.24
75551;BME280;65071;53.082;18.218;2023-09-12T11:43:08;100906.74;;;28.92;38.15
75551;BME280;65071;53.082;18.218;2023-09-12T11:45:44;100904.41;;;28.93;38.62
75551;BME280;65071;53.082;18.218;2023-09-12T11:48:11;100899.41;;;28.93;38.85
75551;BME280;65071;53.082;18.218;2023-09-12T11:50:38;100899.46;;;28.95;39.18
75551;BME280;65071;53.082;18.218;2023-09-12T11:53:10;100898.48;;;28.95;38.60
75551;BME280;65071;53.082;18.218;2023-09-12T11:55:45;100904.09;;;28.97;39.20
75551;BME280;65071;53.082;18.218;2023-09-12T11:58:13;100900.48;;;28.96;38.99
75551;BME280;65071;53.082;18.218;2023-09-12T12:03:23;100898.06;;;29.02;38.91
75551;BME280;65071;53.082;18.218;2023-09-12T12:05:51;100895.28;;;29.01;38.91
75551;BME280;65071;53.082;18.218;2023-09-12T12:08:18;100891.05;;;29.01;38.47
75551;BME280;65071;53.082;18.218;2023-09-12T12:10:52;100884.48;;;28.99;38.39
75551;BME280;65071;53.082;18.218;2023-09-12T12:13:20;100890.89;;;29.02;38.89
75551;BME280;65071;53.082;18.218;2023-09-12T12:15:47;100897.23;;;29.02;38.75
75551;BME280;65071;53.082;18.218;2023-09-12T12:18:14;100895.73;;;29.01;38.59
75551;BME280;65071;53.082;18.218;2023-09-12T12:20:41;100896.60;;;28.98;38.08
75551;BME280;65071;53.082;18.218;2023-09-12T12:23:08;100893.77;;;28.98;39.14
75551;BME280;65071;53.082;18.218;2023-09-12T12:25:35;100890.79;;;29.02;39.02
75551;BME280;65071;53.082;18.218;2023-09-12T12:28:03;100890.13;;;29.03;39.03
75551;BME280;65071;53.082;18.218;2023-09-12T12:30:31;100895.97;;;29.06;38.63
75551;BME280;65071;53.082;18.218;2023-09-12T12:33:01;100892.43;;;29.09;38.66
75551;BME280;65071;53.082;18.218;2023-09-12T12:35:28;100898.71;;;29.11;38.33
75551;BME280;65071;53.082;18.218;2023-09-12T12:37:55;100896.66;;;29.11;38.83
75551;BME280;65071;53.082;18.218;2023-09-12T12:40:23;100894.32;;;29.12;38.24
75551;BME280;65071;53.082;18.218;2023-09-12T12:42:50;100892.02;;;29.14;38.12
75551;BME280;65071;53.082;18.218;2023-09-12T12:45:22;100887.27;;;29.13;37.37
75551;BME280;65071;53.082;18.218;2023-09-12T12:47:57;100889.50;;;29.15;38.20
75551;BME280;65071;53.082;18.218;2023-09-12T12:50:24;100886.02;;;29.15;37.83
75551;BME280;65071;53.082;18.218;2023-09-12T12:52:51;100886.82;;;29.17;38.06
75551;BME280;65071;53.082;18.218;2023-09-12T12:55:21;100882.71;;;29.18;37.34
75551;BME280;65071;53.082;18.218;2023-09-12T12:57:51;100880.00;;;29.19;37.83
75551;BME280;65071;53.082;18.218;2023-09-12T13:00:18;100877.14;;;29.17;37.78